createdAt,value
2018-01-16T10:58:21.346Z,7.54
2018-01-16T10:59:27.574Z,7.66
2018-01-16T11:00:33.817Z,7.68
2018-01-16T11:01:40.051Z,7.79
2018-01-16T11:02:46.195Z,7.79
2018-01-16T11:03:52.352Z,7.80
2018-01-16T11:04:58.311Z,7.88
2018-01-16T11:06:04.511Z,7.88
2018-01-16T11:07:10.801Z,7.90
2018-01-16T11:08:17.120Z,7.87
2018-01-16T11:09:23.367Z,7.89
2018-01-16T11:10:30.910Z,7.91
2018-01-16T11:11:37.199Z,7.95
2018-01-16T11:12:43.596Z,7.86
2018-01-16T11:13:49.920Z,7.81
2018-01-16T11:14:56.117Z,7.83
2018-01-16T11:16:02.270Z,7.92
2018-01-16T11:17:08.551Z,7.99
2018-01-16T11:18:14.788Z,7.98
2018-01-16T11:19:21.055Z,7.98
2018-01-16T11:20:27.296Z,7.99
2018-01-16T11:21:34.397Z,7.89
2018-01-16T11:22:40.574Z,7.73
2018-01-16T11:23:46.812Z,7.68
2018-01-16T11:24:52.990Z,7.57
2018-01-16T11:25:59.200Z,7.54
2018-01-16T11:27:05.422Z,7.31
2018-01-16T11:28:11.678Z,7.28
2018-01-16T11:29:17.836Z,7.28
2018-01-16T11:30:23.980Z,7.32
2018-01-16T11:31:30.190Z,7.23
2018-01-16T11:32:36.392Z,7.21
2018-01-16T11:33:42.602Z,7.18
2018-01-16T11:34:48.725Z,7.11
2018-01-16T11:35:54.939Z,7.12
2018-01-16T11:37:01.097Z,7.13
2018-01-16T11:38:07.290Z,7.12
2018-01-16T11:39:13.434Z,7.12
2018-01-16T11:40:19.638Z,7.17
2018-01-16T11:41:27.822Z,7.08
2018-01-16T11:42:33.971Z,7.09
2018-01-16T11:43:40.105Z,7.05
2018-01-16T11:44:46.230Z,7.06
2018-01-16T11:45:52.440Z,7.05
2018-01-16T11:46:58.685Z,6.98
2018-01-16T11:48:04.876Z,7.03
2018-01-16T11:49:11.091Z,6.98
2018-01-16T11:50:17.481Z,7.05
2018-01-16T11:51:23.825Z,6.93
2018-01-16T11:52:30.004Z,6.94
2018-01-16T11:53:36.188Z,6.86
2018-01-16T11:54:42.316Z,6.91
2018-01-16T11:55:48.534Z,6.88
2018-01-16T11:56:54.835Z,6.89
2018-01-16T11:58:00.996Z,6.86
2018-01-16T11:59:07.214Z,6.79
2018-01-16T12:00:13.189Z,6.79
2018-01-16T12:01:19.244Z,6.74
2018-01-16T12:02:25.513Z,6.70
2018-01-16T12:03:31.727Z,6.64
2018-01-16T12:04:38.641Z,6.66
2018-01-16T12:05:44.604Z,6.58
2018-01-16T12:06:50.551Z,6.64
2018-01-16T12:07:56.536Z,6.62
2018-01-16T12:09:02.743Z,6.64
2018-01-16T12:10:08.871Z,6.59
2018-01-16T12:11:15.296Z,6.60
2018-01-16T12:12:21.548Z,6.64
2018-01-16T12:13:27.772Z,6.63
2018-01-16T12:14:33.892Z,6.63
2018-01-16T12:15:40.108Z,6.64
2018-01-16T12:16:46.315Z,6.58
2018-01-16T12:17:52.543Z,6.59
2018-01-16T12:18:58.898Z,6.59
2018-01-16T12:20:05.939Z,6.61
2018-01-16T12:21:14.961Z,6.68
2018-01-16T12:22:20.828Z,6.65
2018-01-16T12:23:27.156Z,6.73
2018-01-16T12:24:33.358Z,6.77
2018-01-16T12:25:39.529Z,6.91
2018-01-16T12:26:45.732Z,7.00
2018-01-16T12:27:51.891Z,7.07
2018-01-16T12:28:58.066Z,7.19
2018-01-16T12:30:04.206Z,7.18
2018-01-16T12:31:10.450Z,7.12
2018-01-16T12:32:16.647Z,7.07
2018-01-16T12:33:22.857Z,7.04
2018-01-16T12:34:29.012Z,6.92
2018-01-16T12:35:35.245Z,6.83
2018-01-16T12:36:41.401Z,6.75
2018-01-16T12:37:47.554Z,6.72
2018-01-16T12:38:53.768Z,6.68
2018-01-16T12:40:00.174Z,6.75
2018-01-16T12:41:06.360Z,6.69
2018-01-16T12:42:12.559Z,6.74
2018-01-16T12:43:18.768Z,6.79
2018-01-16T12:44:24.948Z,6.85
2018-01-16T12:45:31.093Z,6.90
2018-01-16T12:46:37.297Z,6.85
2018-01-16T12:47:43.474Z,6.75
2018-01-16T12:48:49.683Z,6.69
2018-01-16T12:49:55.887Z,6.60
2018-01-16T12:51:02.031Z,6.60
2018-01-16T12:52:08.191Z,6.52
2018-01-16T12:53:14.400Z,6.38
2018-01-16T12:54:20.531Z,6.40
2018-01-16T12:55:26.780Z,6.36
2018-01-16T12:56:32.998Z,6.29
2018-01-16T12:57:39.258Z,6.20
2018-01-16T12:58:45.422Z,6.20
2018-01-16T12:59:51.553Z,6.01
2018-01-16T13:00:57.728Z,5.88
2018-01-16T13:02:04.039Z,5.76
2018-01-16T13:03:10.217Z,5.73
2018-01-16T13:04:16.608Z,5.72
2018-01-16T13:05:23.016Z,5.63
2018-01-16T13:06:28.857Z,5.53
2018-01-16T13:07:35.120Z,5.43
2018-01-16T13:08:41.279Z,5.25
2018-01-16T13:09:47.461Z,5.26
2018-01-16T13:10:53.672Z,5.17
2018-01-16T13:12:00.187Z,5.15
2018-01-16T13:13:06.399Z,5.12
2018-01-16T13:14:12.638Z,5.25
2018-01-16T13:15:18.815Z,5.22
2018-01-16T13:16:25.030Z,5.12
2018-01-16T13:17:31.219Z,5.16
2018-01-16T13:18:37.392Z,5.17
2018-01-16T13:19:43.601Z,5.02
2018-01-16T13:20:49.952Z,5.09
2018-01-16T13:21:56.278Z,5.11
2018-01-16T13:23:02.529Z,5.19
2018-01-16T13:24:08.766Z,5.20
2018-01-16T13:25:14.970Z,5.13
2018-01-16T13:26:21.170Z,5.18
2018-01-16T13:27:27.431Z,5.25
2018-01-16T13:28:33.675Z,5.23
2018-01-16T13:29:40.155Z,5.26
2018-01-16T13:30:46.338Z,5.37
2018-01-16T13:31:52.784Z,5.38
2018-01-16T13:32:58.915Z,5.29
2018-01-16T13:34:04.926Z,5.37
2018-01-16T13:35:11.120Z,5.43
2018-01-16T13:36:17.282Z,5.52
2018-01-16T13:37:23.429Z,5.48
2018-01-16T13:38:29.602Z,5.61
2018-01-16T13:39:35.835Z,5.57
2018-01-16T13:40:42.018Z,5.58
2018-01-16T13:41:48.355Z,5.57
2018-01-16T13:42:54.627Z,5.58
2018-01-16T13:44:00.903Z,5.55
2018-01-16T13:45:07.081Z,5.46
2018-01-16T13:46:13.324Z,5.39
2018-01-16T13:47:19.930Z,5.40
2018-01-16T13:48:26.172Z,5.41
2018-01-16T13:49:32.394Z,5.38
2018-01-16T13:50:38.584Z,5.37
2018-01-16T13:51:44.858Z,5.39
2018-01-16T13:52:51.087Z,5.31
2018-01-16T13:53:57.323Z,5.26
2018-01-16T13:55:03.640Z,5.18
2018-01-16T13:56:09.927Z,5.19
2018-01-16T13:57:16.234Z,5.16
2018-01-16T13:58:22.576Z,5.12
2018-01-16T13:59:28.753Z,5.28
2018-01-16T14:00:35.427Z,5.15
2018-01-16T14:01:41.490Z,5.07
2018-01-16T14:02:47.887Z,5.11
2018-01-16T14:03:54.060Z,5.06
2018-01-16T14:05:00.393Z,5.07
2018-01-16T14:06:06.710Z,5.01
2018-01-16T14:07:13.440Z,5.01
2018-01-16T14:08:19.707Z,5.02
2018-01-16T14:09:26.443Z,5.19
2018-01-16T14:10:32.690Z,5.12
2018-01-16T14:11:39.330Z,5.11
2018-01-16T14:12:45.555Z,5.10
2018-01-16T14:13:51.750Z,5.07
2018-01-16T14:14:57.994Z,5.09
2018-01-16T14:16:04.154Z,5.13
2018-01-16T14:17:10.046Z,5.08
2018-01-16T14:18:16.240Z,5.08
2018-01-16T14:19:22.431Z,5.14
2018-01-16T14:20:28.700Z,5.11
2018-01-16T14:21:35.006Z,5.14
2018-01-16T14:22:41.374Z,5.20
2018-01-16T14:23:47.639Z,5.24
2018-01-16T14:24:53.815Z,5.28
2018-01-16T14:26:00.135Z,5.26
2018-01-16T14:27:06.038Z,5.17
2018-01-16T14:28:12.298Z,5.11
2018-01-16T14:29:18.667Z,5.11
2018-01-16T14:30:24.827Z,5.01
2018-01-16T14:31:31.148Z,4.96
2018-01-16T14:32:37.418Z,4.93
2018-01-16T14:33:43.673Z,5.03
2018-01-16T14:34:50.025Z,5.03
2018-01-16T14:35:56.392Z,5.09
2018-01-16T14:37:02.759Z,5.05
2018-01-16T14:38:09.637Z,5.09
2018-01-16T14:39:15.982Z,5.03
2018-01-16T14:40:22.161Z,4.95
2018-01-16T14:41:29.653Z,4.90
2018-01-16T14:42:36.189Z,4.99
2018-01-16T14:43:42.616Z,4.99
2018-01-16T14:44:48.877Z,4.97
2018-01-16T14:45:55.317Z,4.99
2018-01-16T14:47:01.636Z,4.97
2018-01-16T14:48:07.954Z,4.99
2018-01-16T14:49:14.255Z,5.07
2018-01-16T14:50:20.916Z,5.05
2018-01-16T14:51:27.244Z,5.11
2018-01-16T14:52:34.568Z,5.11
2018-01-16T14:53:40.872Z,5.14
2018-01-16T14:54:47.259Z,5.10
2018-01-16T14:55:58.620Z,4.90
2018-01-16T14:57:04.820Z,4.89
2018-01-16T14:58:11.214Z,4.92
2018-01-16T14:59:17.425Z,5.02
2018-01-16T15:00:24.321Z,5.08
2018-01-16T15:01:32.841Z,5.07
2018-01-16T15:02:39.145Z,4.92
2018-01-16T15:03:45.374Z,4.92
2018-01-16T15:04:51.680Z,4.86
2018-01-16T15:05:59.688Z,4.89
2018-01-16T15:07:05.838Z,4.93
2018-01-16T15:08:12.438Z,4.95
2018-01-16T15:09:18.619Z,4.93
2018-01-16T15:10:24.568Z,4.89
2018-01-16T15:11:30.854Z,4.87
2018-01-16T15:12:37.816Z,4.92
2018-01-16T15:13:44.050Z,4.88
2018-01-16T15:14:51.088Z,4.87
2018-01-16T15:15:57.377Z,4.92
2018-01-16T15:17:03.933Z,4.86
2018-01-16T15:18:10.184Z,4.87
2018-01-16T15:19:16.392Z,4.87
2018-01-16T15:20:22.586Z,4.93
2018-01-16T15:21:28.825Z,4.88
2018-01-16T15:22:35.154Z,4.93
2018-01-16T15:23:42.073Z,4.93
2018-01-16T15:24:48.276Z,4.82
2018-01-16T15:25:54.640Z,4.85
2018-01-16T15:27:00.964Z,4.88
2018-01-16T15:28:07.722Z,4.91
2018-01-16T15:29:19.921Z,4.82
2018-01-16T15:30:26.074Z,4.70
2018-01-16T15:31:32.282Z,4.71
2018-01-16T15:32:42.512Z,4.69
2018-01-16T15:33:49.284Z,4.73
2018-01-16T15:34:55.727Z,4.71
2018-01-16T15:36:02.408Z,4.78
2018-01-16T15:37:08.662Z,4.78
2018-01-16T15:38:14.553Z,4.73
2018-01-16T15:39:25.768Z,4.72
2018-01-16T15:40:33.536Z,4.76
2018-01-16T15:41:39.722Z,4.68
2018-01-16T15:42:45.909Z,4.72
2018-01-16T15:43:53.274Z,4.70
2018-01-16T15:44:59.582Z,4.66
2018-01-16T15:46:05.844Z,4.74
2018-01-16T15:47:12.119Z,4.52
2018-01-16T15:48:18.623Z,4.53
2018-01-16T15:49:24.851Z,4.45
2018-01-16T15:50:31.304Z,4.48
2018-01-16T15:51:37.503Z,4.50
2018-01-16T15:52:43.738Z,4.58
2018-01-16T15:53:49.922Z,4.52
2018-01-16T15:54:56.052Z,4.61
2018-01-16T15:56:02.427Z,4.60
2018-01-16T15:57:08.664Z,4.62
2018-01-16T15:58:14.918Z,4.68
2018-01-16T15:59:20.824Z,4.58
2018-01-16T16:00:27.593Z,4.62
2018-01-16T16:01:33.540Z,4.58
2018-01-16T16:02:40.388Z,4.55
2018-01-16T16:03:46.430Z,4.58
2018-01-16T16:04:53.297Z,4.55
2018-01-16T16:06:05.434Z,4.46
2018-01-16T16:07:12.265Z,4.53
2018-01-16T16:08:18.535Z,4.54
2018-01-16T16:09:24.828Z,4.46
2018-01-16T16:10:31.856Z,4.36
2018-01-16T16:11:38.080Z,4.21
2018-01-16T16:12:45.919Z,4.26
2018-01-16T16:13:52.505Z,4.18
2018-01-16T16:14:59.087Z,4.20
2018-01-16T16:16:06.298Z,4.24
2018-01-16T16:17:12.553Z,4.24
2018-01-16T16:18:19.648Z,4.25
2018-01-16T16:19:25.923Z,4.24
2018-01-16T16:20:32.255Z,4.13
2018-01-16T16:21:38.690Z,4.24
2018-01-16T16:22:44.894Z,4.23
2018-01-16T16:23:51.826Z,4.25
2018-01-16T16:24:58.216Z,4.13
2018-01-16T16:26:04.486Z,4.10
2018-01-16T16:27:10.735Z,4.12
2018-01-16T16:28:18.040Z,4.04
2018-01-16T16:29:24.481Z,4.05
2018-01-16T16:30:30.652Z,4.03
2018-01-16T16:31:37.293Z,4.04
2018-01-16T16:32:43.650Z,3.98
2018-01-16T16:33:49.882Z,3.93
2018-01-16T16:34:56.175Z,3.86
2018-01-16T16:36:02.278Z,3.89
2018-01-16T16:37:08.586Z,3.85
2018-01-16T16:38:14.488Z,3.86
2018-01-16T16:39:21.242Z,3.81
2018-01-16T16:40:27.567Z,3.82
2018-01-16T16:41:34.199Z,3.83
2018-01-16T16:42:40.371Z,3.87
2018-01-16T16:43:46.816Z,3.97
2018-01-16T16:44:52.988Z,3.97
2018-01-16T16:45:59.253Z,3.91
2018-01-16T16:47:06.063Z,4.02
2018-01-16T16:48:12.253Z,4.00
2018-01-16T16:49:18.669Z,3.96
2018-01-16T16:50:25.083Z,3.84
2018-01-16T16:51:32.147Z,3.82
2018-01-16T16:52:38.410Z,3.78
2018-01-16T16:53:44.626Z,3.78
2018-01-16T16:54:50.847Z,3.80
2018-01-16T16:55:56.855Z,3.75
2018-01-16T16:57:04.520Z,3.68
2018-01-16T16:58:10.825Z,3.68
2018-01-16T16:59:17.466Z,3.69
2018-01-16T17:00:23.737Z,3.67
2018-01-16T17:01:31.198Z,3.62
2018-01-16T17:02:38.120Z,3.61
2018-01-16T17:03:44.877Z,3.61
2018-01-16T17:04:51.592Z,3.63
2018-01-16T17:05:58.076Z,3.69
2018-01-16T17:07:04.388Z,3.69
2018-01-16T17:08:10.674Z,3.67
2018-01-16T17:09:16.929Z,3.74
2018-01-16T17:10:22.536Z,3.73
2018-01-16T17:11:34.067Z,3.71
2018-01-16T17:12:40.877Z,3.80
2018-01-16T17:13:47.162Z,3.72
2018-01-16T17:14:53.414Z,3.71
2018-01-16T17:15:59.667Z,3.72
2018-01-16T17:17:06.599Z,3.73
2018-01-16T17:18:12.792Z,3.81
2018-01-16T17:19:24.793Z,3.80
2018-01-16T17:20:30.990Z,3.86
2018-01-16T17:21:38.135Z,3.89
2018-01-16T17:22:44.364Z,3.94
2018-01-16T17:23:50.806Z,4.01
2018-01-16T17:24:57.181Z,4.01
2018-01-16T17:26:05.548Z,4.03
2018-01-16T17:27:12.660Z,3.98
2018-01-16T17:28:18.888Z,3.90
2018-01-16T17:29:24.986Z,3.87
2018-01-16T17:30:31.202Z,3.81
2018-01-16T17:31:37.524Z,3.80
2018-01-16T17:32:43.723Z,3.78
2018-01-16T17:33:49.957Z,3.82
2018-01-16T17:34:56.162Z,3.83
2018-01-16T17:36:03.037Z,3.89
2018-01-16T17:37:09.718Z,3.85
2018-01-16T17:38:15.968Z,3.81
2018-01-16T17:39:22.182Z,3.85
2018-01-16T17:40:28.441Z,3.81
2018-01-16T17:41:34.925Z,3.83
2018-01-16T17:42:42.600Z,3.82
2018-01-16T17:43:48.871Z,3.76
2018-01-16T17:44:55.089Z,3.83
2018-01-16T17:46:05.288Z,3.90
2018-01-16T17:47:13.645Z,3.85
2018-01-16T17:48:21.743Z,3.84
2018-01-16T17:49:31.237Z,3.83
2018-01-16T17:50:38.745Z,3.75
2018-01-16T17:51:51.937Z,3.70
2018-01-16T17:53:01.314Z,3.65
2018-01-16T17:54:08.195Z,3.61
2018-01-16T17:55:14.469Z,3.68
2018-01-16T17:56:20.935Z,3.69
2018-01-16T17:57:29.010Z,3.72
2018-01-16T17:58:36.597Z,3.74
2018-01-16T17:59:43.240Z,3.69
2018-01-16T18:00:50.682Z,3.63
2018-01-16T18:01:57.250Z,3.62
2018-01-16T18:03:03.887Z,3.64
2018-01-16T18:04:11.259Z,3.73
2018-01-16T18:05:18.750Z,3.70
2018-01-16T18:06:25.074Z,3.67
2018-01-16T18:07:31.260Z,3.73
2018-01-16T18:08:37.399Z,3.74
2018-01-16T18:09:43.538Z,3.67
2018-01-16T18:10:49.796Z,3.70
2018-01-16T18:11:56.566Z,3.69
2018-01-16T18:13:04.654Z,3.67
2018-01-16T18:14:11.131Z,3.64
2018-01-16T18:15:17.462Z,3.63
2018-01-16T18:16:23.767Z,3.62
2018-01-16T18:17:29.678Z,3.62
2018-01-16T18:18:35.832Z,3.72
2018-01-16T18:19:42.078Z,3.68
2018-01-16T18:20:49.074Z,3.71
2018-01-16T18:21:55.037Z,3.64
2018-01-16T18:23:01.244Z,3.72
2018-01-16T18:24:07.550Z,3.73
2018-01-16T18:25:13.883Z,3.73
2018-01-16T18:26:20.322Z,3.76
2018-01-16T18:27:26.383Z,3.70
2018-01-16T18:28:32.938Z,3.69
2018-01-16T18:29:40.619Z,3.72
2018-01-16T18:30:47.028Z,3.67
2018-01-16T18:31:53.371Z,3.74
2018-01-16T18:33:00.141Z,3.67
2018-01-16T18:34:07.008Z,3.60
2018-01-16T18:35:13.836Z,3.60
2018-01-16T18:36:20.205Z,3.56
2018-01-16T18:37:26.727Z,3.56
2018-01-16T18:38:33.104Z,3.56
2018-01-16T18:39:41.093Z,3.61
2018-01-16T18:40:49.463Z,3.62
2018-01-16T18:41:57.928Z,3.68
2018-01-16T18:43:05.620Z,3.65
2018-01-16T18:44:13.459Z,3.72
2018-01-16T18:45:21.057Z,3.71
2018-01-16T18:46:28.794Z,3.64
2018-01-16T18:47:36.268Z,3.61
2018-01-16T18:48:44.499Z,3.56
2018-01-16T18:49:52.902Z,3.64
2018-01-16T18:51:00.720Z,3.60
2018-01-16T18:52:08.018Z,3.55
2018-01-16T18:53:15.077Z,3.54
2018-01-16T18:54:21.294Z,3.57
2018-01-16T18:55:27.611Z,3.59
2018-01-16T18:56:34.791Z,3.59
2018-01-16T18:57:40.914Z,3.52
2018-01-16T18:58:48.380Z,3.50
2018-01-16T18:59:56.671Z,3.52
2018-01-16T19:01:06.257Z,3.47
2018-01-16T19:02:17.744Z,3.44
2018-01-16T19:03:25.941Z,3.46
2018-01-16T19:04:34.278Z,3.43
2018-01-16T19:05:43.260Z,3.34
2018-01-16T19:06:51.097Z,3.35
2018-01-16T19:07:59.302Z,3.38
2018-01-16T19:09:08.274Z,3.38
2018-01-16T19:10:17.637Z,3.37
2018-01-16T19:11:25.193Z,3.33
2018-01-16T19:12:33.446Z,3.21
2018-01-16T19:13:42.578Z,3.16
2018-01-16T19:14:51.689Z,3.16
2018-01-16T19:16:00.318Z,3.13
2018-01-16T19:17:09.477Z,3.14
2018-01-16T19:18:20.362Z,3.17
2018-01-16T19:19:27.315Z,3.19
2018-01-16T19:20:36.779Z,3.22
2018-01-16T19:21:45.223Z,3.16
2018-01-16T19:22:53.454Z,3.21
2018-01-16T19:24:00.871Z,3.18
2018-01-16T19:25:10.240Z,3.12
2018-01-16T19:26:19.167Z,3.14
2018-01-16T19:27:27.469Z,3.14
2018-01-16T19:28:35.457Z,3.13
2018-01-16T19:29:43.421Z,3.11
2018-01-16T19:30:51.074Z,3.11
2018-01-16T19:31:57.773Z,3.05
2018-01-16T19:33:04.000Z,3.10
2018-01-16T19:34:11.177Z,3.09
2018-01-16T19:35:18.940Z,3.07
2018-01-16T19:36:25.234Z,2.97
2018-01-16T19:37:32.069Z,2.90
2018-01-16T19:38:38.497Z,2.87
2018-01-16T19:39:44.817Z,2.81
2018-01-16T19:40:51.152Z,2.77
2018-01-16T19:41:58.017Z,2.83
2018-01-16T19:43:05.821Z,2.73
2018-01-16T19:44:11.859Z,2.78
2018-01-16T19:45:18.688Z,2.66
2018-01-16T19:46:25.547Z,2.62
2018-01-16T19:47:32.725Z,2.63
2018-01-16T19:48:39.133Z,2.59
2018-01-16T19:49:45.470Z,2.65
2018-01-16T19:50:52.449Z,2.64
2018-01-16T19:51:59.987Z,2.68
2018-01-16T19:53:06.864Z,2.73
2018-01-16T19:54:12.845Z,2.68
2018-01-16T19:55:19.072Z,2.73
2018-01-16T19:56:25.566Z,2.78
2018-01-16T19:57:33.110Z,2.72
2018-01-16T19:58:41.689Z,2.69
2018-01-16T19:59:47.917Z,2.68
2018-01-16T20:00:55.186Z,2.66
2018-01-16T20:02:02.235Z,2.58
2018-01-16T20:03:10.077Z,2.56
2018-01-16T20:04:17.443Z,2.56
2018-01-16T20:05:25.098Z,2.61
2018-01-16T20:06:32.725Z,2.63
2018-01-16T20:07:39.767Z,2.60
2018-01-16T20:08:48.045Z,2.56
2018-01-16T20:09:55.039Z,2.44
2018-01-16T20:11:02.890Z,2.52
2018-01-16T20:12:09.951Z,2.49
2018-01-16T20:13:18.608Z,2.50
2018-01-16T20:14:28.220Z,2.50
2018-01-16T20:15:35.525Z,2.51
2018-01-16T20:16:42.920Z,2.46
2018-01-16T20:17:50.864Z,2.52
2018-01-16T20:18:58.751Z,2.56
2018-01-16T20:20:05.338Z,2.60
2018-01-16T20:21:11.935Z,2.59
2018-01-16T20:22:19.389Z,2.67
2018-01-16T20:23:26.024Z,2.66
2018-01-16T20:24:34.155Z,2.72
2018-01-16T20:25:42.314Z,2.73
2018-01-16T20:26:50.450Z,2.71
2018-01-16T20:27:57.511Z,2.70
2018-01-16T20:29:04.678Z,2.65
2018-01-16T20:30:13.350Z,2.67
2018-01-16T20:31:20.878Z,2.67
2018-01-16T20:32:27.181Z,2.55
2018-01-16T20:33:33.725Z,2.64
2018-01-16T20:34:41.137Z,2.53
2018-01-16T20:35:47.363Z,2.55
2018-01-16T20:36:53.769Z,2.60
2018-01-16T20:38:00.066Z,2.47
2018-01-16T20:39:07.949Z,2.44
2018-01-16T20:40:16.758Z,2.53
2018-01-16T20:41:22.990Z,2.45
2018-01-16T20:42:29.027Z,2.42
2018-01-16T20:43:35.539Z,2.54
2018-01-16T20:44:41.751Z,2.53
2018-01-16T20:45:50.852Z,2.52
2018-01-16T20:46:57.848Z,2.55
2018-01-16T20:48:04.248Z,2.55
2018-01-16T20:49:10.781Z,2.53
2018-01-16T20:50:17.576Z,2.52
2018-01-16T20:51:24.769Z,2.52
2018-01-16T20:52:31.156Z,2.47
2018-01-16T20:53:37.586Z,2.49
2018-01-16T20:54:43.876Z,2.57
2018-01-16T20:55:50.247Z,2.61
2018-01-16T20:56:57.318Z,2.63
2018-01-16T20:58:04.199Z,2.54
2018-01-16T20:59:10.692Z,2.52
2018-01-16T21:00:17.627Z,2.49
2018-01-16T21:01:24.493Z,2.52
2018-01-16T21:02:30.769Z,2.49
2018-01-16T21:03:37.068Z,2.53
2018-01-16T21:04:43.699Z,2.51
2018-01-16T21:05:50.663Z,2.50
2018-01-16T21:06:57.295Z,2.44
2018-01-16T21:08:04.414Z,2.46
2018-01-16T21:09:11.327Z,2.51
2018-01-16T21:10:17.624Z,2.45
2018-01-16T21:11:23.956Z,2.48
2018-01-16T21:12:30.138Z,2.48
2018-01-16T21:13:37.882Z,2.49
2018-01-16T21:14:45.166Z,2.52
2018-01-16T21:15:51.908Z,2.54
2018-01-16T21:16:58.945Z,2.53
2018-01-16T21:18:06.099Z,2.45
2018-01-16T21:19:14.199Z,2.45
2018-01-16T21:20:21.470Z,2.51
2018-01-16T21:21:28.683Z,2.49
2018-01-16T21:22:35.062Z,2.43
2018-01-16T21:23:40.918Z,2.34
2018-01-16T21:24:47.439Z,2.40
2018-01-16T21:25:54.508Z,2.35
2018-01-16T21:27:00.699Z,2.34
2018-01-16T21:28:09.385Z,2.41
2018-01-16T21:29:16.433Z,2.33
2018-01-16T21:30:23.078Z,2.36
2018-01-16T21:31:29.358Z,2.24
2018-01-16T21:32:37.094Z,2.27
2018-01-16T21:33:49.147Z,2.31
2018-01-16T21:34:56.459Z,2.33
2018-01-16T21:36:03.463Z,2.31
2018-01-16T21:37:09.691Z,2.29
2018-01-16T21:38:20.742Z,2.37
2018-01-16T21:39:27.239Z,2.27
2018-01-16T21:40:34.820Z,2.25
2018-01-16T21:41:40.912Z,2.28
2018-01-16T21:42:47.901Z,2.29
2018-01-16T21:43:55.144Z,2.28
2018-01-16T21:45:03.097Z,2.28
2018-01-16T21:46:09.377Z,2.24
2018-01-16T21:47:16.470Z,2.28
2018-01-16T21:48:22.713Z,2.26
2018-01-16T21:49:30.406Z,2.26
2018-01-16T21:50:37.368Z,2.33
2018-01-16T21:51:44.038Z,2.31
2018-01-16T21:52:51.992Z,2.28
2018-01-16T21:53:59.192Z,2.36
2018-01-16T21:55:06.296Z,2.33
2018-01-16T21:56:12.635Z,2.34
2018-01-16T21:57:18.967Z,2.28
2018-01-16T21:58:25.563Z,2.22
2018-01-16T21:59:31.920Z,2.26
2018-01-16T22:00:38.092Z,2.24
2018-01-16T22:01:45.433Z,2.28
2018-01-16T22:02:52.365Z,2.36
2018-01-16T22:03:59.516Z,2.31
2018-01-16T22:05:06.013Z,2.35
2018-01-16T22:06:12.583Z,2.28
2018-01-16T22:07:19.677Z,2.31
2018-01-16T22:08:27.224Z,2.31
2018-01-16T22:09:35.889Z,2.27
2018-01-16T22:10:42.767Z,2.27
2018-01-16T22:11:49.073Z,2.23
2018-01-16T22:12:56.226Z,2.27
2018-01-16T22:14:03.906Z,2.26
2018-01-16T22:15:10.390Z,2.28
2018-01-16T22:16:16.185Z,2.29
2018-01-16T22:17:23.719Z,2.29
2018-01-16T22:18:29.774Z,2.34
2018-01-16T22:19:36.066Z,2.32
2018-01-16T22:20:42.846Z,2.33
2018-01-16T22:21:52.720Z,2.37
2018-01-16T22:22:59.014Z,2.37
2018-01-16T22:24:05.417Z,2.33
2018-01-16T22:25:12.158Z,2.32
2018-01-16T22:26:18.858Z,2.34
2018-01-16T22:27:25.562Z,2.33
2018-01-16T22:28:31.747Z,2.34
2018-01-16T22:29:39.009Z,2.36
2018-01-16T22:30:45.308Z,2.41
2018-01-16T22:31:51.700Z,2.44
2018-01-16T22:32:59.170Z,2.36
2018-01-16T22:34:05.310Z,2.37
2018-01-16T22:35:12.951Z,2.28
2018-01-16T22:36:19.436Z,2.29
2018-01-16T22:37:26.488Z,2.37
2018-01-16T22:38:33.092Z,2.32
2018-01-16T22:39:39.675Z,2.26
2018-01-16T22:40:45.896Z,2.27
2018-01-16T22:41:52.109Z,2.27
2018-01-16T22:42:58.073Z,2.30
2018-01-16T22:44:04.055Z,2.22
2018-01-16T22:45:10.873Z,2.24
2018-01-16T22:46:17.282Z,2.32
2018-01-16T22:47:23.637Z,2.37
2018-01-16T22:48:30.180Z,2.37
2018-01-16T22:49:36.422Z,2.34
2018-01-16T22:50:42.702Z,2.40
2018-01-16T22:51:49.630Z,2.44
2018-01-16T22:52:56.008Z,2.42
2018-01-16T22:54:02.297Z,2.43
2018-01-16T22:55:08.521Z,2.42
2018-01-16T22:56:16.089Z,2.42
2018-01-16T22:57:22.099Z,2.40
2018-01-16T22:58:28.203Z,2.41
2018-01-16T22:59:34.770Z,2.37
2018-01-16T23:00:41.382Z,2.40
2018-01-16T23:01:47.265Z,2.40
2018-01-16T23:02:53.561Z,2.43
2018-01-16T23:04:00.464Z,2.43
2018-01-16T23:05:07.427Z,2.39
2018-01-16T23:06:14.195Z,2.37
2018-01-16T23:07:20.946Z,2.44
2018-01-16T23:08:27.266Z,2.46
2018-01-16T23:09:33.366Z,2.44
2018-01-16T23:10:39.850Z,2.48
2018-01-16T23:11:46.143Z,2.43
2018-01-16T23:12:52.368Z,2.49
2018-01-16T23:13:58.651Z,2.40
2018-01-16T23:15:09.797Z,2.42
2018-01-16T23:16:16.115Z,2.39
2018-01-16T23:17:22.299Z,2.49
2018-01-16T23:18:29.294Z,2.55
2018-01-16T23:19:37.430Z,2.49
2018-01-16T23:20:44.471Z,2.45
2018-01-16T23:21:51.617Z,2.42
2018-01-16T23:22:57.860Z,2.41
2018-01-16T23:24:04.386Z,2.36
2018-01-16T23:25:10.628Z,2.38
2018-01-16T23:26:16.789Z,2.42
2018-01-16T23:27:23.088Z,2.52
2018-01-16T23:28:32.126Z,2.55
2018-01-16T23:29:38.781Z,2.49
2018-01-16T23:30:45.768Z,2.52
2018-01-16T23:31:52.655Z,2.42
2018-01-16T23:32:58.499Z,2.37
2018-01-16T23:34:05.905Z,2.33
2018-01-16T23:35:12.763Z,2.36
2018-01-16T23:36:18.292Z,2.35
2018-01-16T23:37:24.776Z,2.42
2018-01-16T23:38:31.131Z,2.47
2018-01-16T23:39:37.549Z,2.43
2018-01-16T23:40:44.364Z,2.43
2018-01-16T23:41:51.040Z,2.43
2018-01-16T23:42:57.045Z,2.40
2018-01-16T23:44:03.188Z,2.37
2018-01-16T23:45:09.446Z,2.37
2018-01-16T23:46:15.715Z,2.40
2018-01-16T23:47:22.015Z,2.42
2018-01-16T23:48:33.362Z,2.44
2018-01-16T23:49:39.959Z,2.43
2018-01-16T23:50:46.263Z,2.42
2018-01-16T23:51:52.448Z,2.45
2018-01-16T23:52:58.639Z,2.44
2018-01-16T23:54:04.909Z,2.47
2018-01-16T23:55:11.110Z,2.36
2018-01-16T23:56:17.440Z,2.31
2018-01-16T23:57:24.277Z,2.37
2018-01-16T23:58:30.479Z,2.34
2018-01-16T23:59:36.788Z,2.28
